Time;durP1;ratioP1;P1;durP2;ratioP2;P2;SDS_P1;SDS_P2;PMS_P1;PMS_P2;Temp;Humidity;BMP_temperature;BMP_pressure;BME280_temperature;BME280_humidity;BME280_pressure;Samples;Min_cycle;Max_cycle;Signal;HPM_P1;HPM_P2
2022/05/06 00:01:35;;;;;;;22.45;14.38;;;;;;;;;;5111664;28;20126;-28
2022/05/06 00:04:03;;;;;;;22.33;15.23;;;;;;;;;;5111381;28;20050;-26
2022/05/06 00:06:29;;;;;;;21.88;15.13;;;;;;;;;;5112947;28;20051;-30
2022/05/06 00:08:56;;;;;;;24.00;15.02;;;;;;;;;;5115178;28;20489;-26
2022/05/06 00:11:22;;;;;;;21.70;14.77;;;;;;;;;;5115271;28;20100;-28
2022/05/06 00:13:48;;;;;;;21.88;15.43;;;;;;;;;;5115465;28;20441;-26
2022/05/06 00:16:15;;;;;;;24.05;15.75;;;;;;;;;;5115365;28;20511;-27
2022/05/06 00:18:41;;;;;;;23.23;16.35;;;;;;;;;;5114114;28;20031;-35
2022/05/06 00:21:07;;;;;;;23.42;14.75;;;;;;;;;;5111230;28;20039;-26
2022/05/06 00:23:33;;;;;;;21.85;14.93;;;;;;;;;;5115694;28;20035;-25
2022/05/06 00:25:59;;;;;;;24.45;16.35;;;;;;;;;;5115551;28;20047;-25
2022/05/06 00:28:26;;;;;;;20.98;14.57;;;;;;;;;;5104359;28;20430;-25
2022/05/06 00:30:52;;;;;;;20.98;13.57;;;;;;;;;;5095106;28;20047;-26
2022/05/06 00:33:18;;;;;;;23.13;16.42;;;;;;;;;;5115032;28;20393;-25
2022/05/06 00:35:44;;;;;;;23.27;15.35;;;;;;;;;;5114962;27;20058;-30
2022/05/06 00:38:10;;;;;;;24.27;15.65;;;;;;;;;;5116416;28;20100;-28
2022/05/06 00:40:36;;;;;;;20.95;15.00;;;;;;;;;;5115558;28;20040;-25
2022/05/06 00:43:02;;;;;;;26.95;16.23;;;;;;;;;;5114559;28;20050;-25
2022/05/06 00:45:35;;;;;;;23.10;14.60;;;;;;;;;;5114179;28;20039;-27
2022/05/06 00:48:01;;;;;;;25.58;17.50;;;;;;;;;;5098652;28;20051;-25
2022/05/06 00:50:27;;;;;;;22.92;15.95;;;;;;;;;;5093654;28;20036;-25
2022/05/06 00:52:54;;;;;;;26.85;16.60;;;;;;;;;;5093517;28;20089;-25
2022/05/06 00:55:21;;;;;;;28.13;17.23;;;;;;;;;;5091977;28;20040;-25
2022/05/06 00:57:47;;;;;;;25.25;17.27;;;;;;;;;;5102016;28;20036;-25
2022/05/06 01:00:19;;;;;;;22.73;15.68;;;;;;;;;;5113453;27;20043;-26
2022/05/06 01:02:46;;;;;;;26.27;16.23;;;;;;;;;;5114468;28;20160;-26
2022/05/06 01:05:12;;;;;;;23.38;16.17;;;;;;;;;;5114774;28;20054;-25
2022/05/06 01:07:39;;;;;;;23.90;15.93;;;;;;;;;;5114089;28;20043;-25
2022/05/06 01:10:06;;;;;;;23.38;16.08;;;;;;;;;;5113836;28;20043;-26
2022/05/06 01:12:32;;;;;;;24.77;15.68;;;;;;;;;;5113946;28;20607;-26
2022/05/06 01:14:58;;;;;;;24.88;16.33;;;;;;;;;;5095906;28;20501;-25
2022/05/06 01:17:24;;;;;;;24.20;15.88;;;;;;;;;;5113792;28;20043;-25
2022/05/06 01:19:50;;;;;;;24.80;15.95;;;;;;;;;;5113988;28;20039;-27
2022/05/06 01:22:17;;;;;;;27.17;16.75;;;;;;;;;;5113686;28;20092;-26
2022/05/06 01:24:44;;;;;;;24.98;16.88;;;;;;;;;;5113825;27;20047;-25
2022/05/06 01:27:14;;;;;;;25.92;16.35;;;;;;;;;;5113944;28;20514;-27
2022/05/06 01:29:41;;;;;;;23.25;15.73;;;;;;;;;;5112491;28;20043;-26
2022/05/06 01:32:08;;;;;;;21.63;15.20;;;;;;;;;;5113784;28;20036;-25
2022/05/06 01:34:35;;;;;;;27.20;16.35;;;;;;;;;;5113806;28;20069;-25
2022/05/06 01:37:03;;;;;;;22.92;16.20;;;;;;;;;;5113546;28;20086;-25
2022/05/06 01:39:31;;;;;;;25.25;16.15;;;;;;;;;;5112670;28;20084;-26
2022/05/06 01:41:59;;;;;;;24.83;16.02;;;;;;;;;;5112387;28;20040;-27
2022/05/06 01:44:26;;;;;;;25.75;16.55;;;;;;;;;;5112232;28;20043;-27
2022/05/06 01:46:55;;;;;;;22.27;15.90;;;;;;;;;;5112184;28;20054;-28
2022/05/06 01:49:21;;;;;;;26.60;16.73;;;;;;;;;;5113603;27;20485;-28
2022/05/06 01:51:48;;;;;;;24.35;16.42;;;;;;;;;;5111857;28;20051;-28
2022/05/06 01:54:14;;;;;;;26.65;17.63;;;;;;;;;;5113719;27;20123;-26
2022/05/06 01:56:41;;;;;;;23.67;15.93;;;;;;;;;;5112146;28;20456;-26
2022/05/06 01:59:08;;;;;;;23.77;15.70;;;;;;;;;;5113505;28;20040;-27
2022/05/06 02:01:34;;;;;;;22.90;14.98;;;;;;;;;;5113550;28;20097;-25
2022/05/06 02:06:45;;;;;;;25.02;16.98;;;;;;;;;;5113001;28;20044;-26
2022/05/06 02:09:11;;;;;;;25.20;17.48;;;;;;;;;;5112969;28;20051;-27
2022/05/06 02:11:37;;;;;;;24.00;16.40;;;;;;;;;;5112425;28;20047;-28
2022/05/06 02:14:04;;;;;;;26.17;17.58;;;;;;;;;;5111537;28;20051;-25
2022/05/06 02:16:30;;;;;;;27.58;17.48;;;;;;;;;;5111200;28;20040;-28
2022/05/06 02:18:56;;;;;;;23.75;16.70;;;;;;;;;;5112566;28;20088;-27
2022/05/06 02:21:22;;;;;;;26.20;16.70;;;;;;;;;;5112392;28;20197;-25
2022/05/06 02:23:48;;;;;;;29.65;18.65;;;;;;;;;;5112564;28;20039;-27
2022/05/06 02:26:14;;;;;;;26.02;17.27;;;;;;;;;;5112396;28;20040;-26
2022/05/06 02:28:40;;;;;;;25.38;16.70;;;;;;;;;;5111300;28;20051;-26
2022/05/06 02:33:51;;;;;;;24.75;16.13;;;;;;;;;;5112465;28;20399;-26
2022/05/06 02:36:17;;;;;;;25.60;17.00;;;;;;;;;;5112415;28;20035;-26
2022/05/06 02:38:43;;;;;;;28.00;18.10;;;;;;;;;;5112469;28;20057;-27
2022/05/06 02:41:10;;;;;;;27.20;17.50;;;;;;;;;;5112332;28;20055;-27
2022/05/06 02:43:37;;;;;;;27.52;16.75;;;;;;;;;;5112043;28;20047;-27
2022/05/06 02:46:03;;;;;;;26.60;17.67;;;;;;;;;;5110759;28;20040;-27
2022/05/06 02:48:29;;;;;;;26.25;17.27;;;;;;;;;;5112243;28;20042;-26
2022/05/06 02:50:55;;;;;;;26.27;16.95;;;;;;;;;;5093674;28;20423;-26
2022/05/06 02:53:21;;;;;;;27.63;17.50;;;;;;;;;;5112278;28;20039;-26
2022/05/06 02:55:47;;;;;;;24.73;16.83;;;;;;;;;;5112149;28;20039;-26
2022/05/06 02:58:14;;;;;;;26.63;16.85;;;;;;;;;;5112384;28;20047;-26
2022/05/06 03:00:40;;;;;;;26.92;17.60;;;;;;;;;;5111967;28;20537;-26
2022/05/06 03:03:06;;;;;;;29.27;18.38;;;;;;;;;;5112089;28;20062;-26
2022/05/06 03:05:32;;;;;;;26.88;17.52;;;;;;;;;;5111883;28;20036;-26
2022/05/06 03:07:58;;;;;;;29.33;18.17;;;;;;;;;;5112255;28;20441;-25
2022/05/06 03:10:25;;;;;;;29.00;17.33;;;;;;;;;;5112025;28;20421;-27
2022/05/06 03:12:55;;;;;;;29.65;17.35;;;;;;;;;;5112098;28;20082;-26
2022/05/06 03:15:24;;;;;;;28.10;17.33;;;;;;;;;;5111998;28;20040;-26
2022/05/06 03:17:50;;;;;;;27.55;18.55;;;;;;;;;;5112055;28;20046;-27
2022/05/06 03:20:16;;;;;;;28.85;17.60;;;;;;;;;;5112011;28;20035;-25
2022/05/06 03:22:45;;;;;;;31.20;18.67;;;;;;;;;;5112193;28;20382;-26
2022/05/06 03:25:12;;;;;;;27.63;18.80;;;;;;;;;;5111896;28;20047;-27
2022/05/06 03:30:23;;;;;;;29.38;18.20;;;;;;;;;;5111513;28;20054;-26
2022/05/06 03:32:49;;;;;;;30.55;18.92;;;;;;;;;;5111886;28;20114;-27
2022/05/06 03:35:16;;;;;;;30.27;18.58;;;;;;;;;;5111955;28;20036;-28
2022/05/06 03:37:42;;;;;;;30.05;19.13;;;;;;;;;;5111683;28;20035;-27
2022/05/06 03:40:08;;;;;;;26.27;17.70;;;;;;;;;;5113195;28;20044;-27
2022/05/06 03:42:34;;;;;;;26.70;17.52;;;;;;;;;;5115881;28;20039;-27
2022/05/06 03:45:03;;;;;;;29.30;19.13;;;;;;;;;;5115778;28;20560;-28
2022/05/06 03:47:29;;;;;;;28.92;17.90;;;;;;;;;;5115577;28;20107;-26
2022/05/06 03:52:39;;;;;;;25.52;17.05;;;;;;;;;;5115508;28;20212;-26
2022/05/06 03:55:06;;;;;;;28.80;18.67;;;;;;;;;;5114985;28;20039;-29
2022/05/06 03:57:32;;;;;;;31.55;20.55;;;;;;;;;;5115460;28;20050;-25
2022/05/06 03:59:58;;;;;;;30.75;18.98;;;;;;;;;;5115239;28;20503;-26
2022/05/06 04:02:24;;;;;;;28.08;18.15;;;;;;;;;;5115190;28;20043;-28
2022/05/06 04:04:50;;;;;;;28.20;18.67;;;;;;;;;;5115042;28;20488;-26
2022/05/06 04:07:16;;;;;;;28.13;18.80;;;;;;;;;;5115364;28;20370;-26
2022/05/06 04:09:42;;;;;;;27.75;18.45;;;;;;;;;;5115583;28;20084;-25
2022/05/06 04:12:10;;;;;;;28.63;19.25;;;;;;;;;;5113779;28;20035;-27
2022/05/06 04:14:36;;;;;;;29.13;18.70;;;;;;;;;;5114907;28;20036;-25
2022/05/06 04:17:05;;;;;;;28.55;19.23;;;;;;;;;;5114824;28;20122;-26
2022/05/06 04:19:31;;;;;;;28.67;18.40;;;;;;;;;;5114985;27;20122;-26
2022/05/06 04:24:42;;;;;;;29.65;19.20;;;;;;;;;;5115035;28;20095;-25
2022/05/06 04:27:08;;;;;;;27.23;18.23;;;;;;;;;;5114857;28;20050;-25
2022/05/06 04:29:34;;;;;;;32.47;19.50;;;;;;;;;;5114539;28;20044;-27
2022/05/06 04:32:01;;;;;;;34.30;19.85;;;;;;;;;;5114507;28;20036;-26
2022/05/06 04:34:27;;;;;;;31.50;19.02;;;;;;;;;;5115055;28;20509;-27
2022/05/06 04:36:53;;;;;;;27.58;18.60;;;;;;;;;;5113782;28;20528;-27
2022/05/06 04:39:19;;;;;;;25.52;16.85;;;;;;;;;;5114399;28;20477;-28
2022/05/06 04:41:47;;;;;;;28.67;18.17;;;;;;;;;;5112996;28;20032;-26
2022/05/06 04:44:13;;;;;;;30.50;19.38;;;;;;;;;;5113824;28;20039;-26
2022/05/06 04:46:39;;;;;;;29.20;19.30;;;;;;;;;;5114314;28;20051;-26
2022/05/06 04:49:05;;;;;;;26.30;17.70;;;;;;;;;;5114488;28;20039;-27
2022/05/06 04:51:32;;;;;;;32.33;19.88;;;;;;;;;;5113531;28;20090;-28
2022/05/06 04:53:58;;;;;;;27.42;17.90;;;;;;;;;;5113983;28;20079;-28
2022/05/06 04:56:24;;;;;;;32.92;18.80;;;;;;;;;;5112780;28;20088;-26
2022/05/06 04:58:51;;;;;;;33.80;20.45;;;;;;;;;;5113186;28;20508;-27
2022/05/06 05:01:17;;;;;;;28.17;18.20;;;;;;;;;;5112677;28;20089;-27
2022/05/06 05:03:43;;;;;;;28.85;20.30;;;;;;;;;;5114733;28;20540;-26
2022/05/06 05:06:09;;;;;;;32.38;19.95;;;;;;;;;;5114140;28;20038;-27
2022/05/06 05:08:35;;;;;;;29.17;17.95;;;;;;;;;;5114173;28;20039;-25
2022/05/06 05:11:04;;;;;;;29.17;18.77;;;;;;;;;;5113569;28;20044;-27
2022/05/06 05:13:38;;;;;;;32.42;19.83;;;;;;;;;;5113887;28;20036;-27
2022/05/06 05:16:04;;;;;;;;;;;;;;;;;;5114132;28;20118;-27
2022/05/06 05:18:31;;;;;;;29.83;18.67;;;;;;;;;;5113474;28;19961;-26
2022/05/06 05:20:57;;;;;;;31.90;19.73;;;;;;;;;;5113599;28;20055;-28
2022/05/06 05:23:23;;;;;;;29.92;19.65;;;;;;;;;;5113642;28;20044;-26
2022/05/06 05:25:51;;;;;;;34.38;20.73;;;;;;;;;;5113814;28;20057;-27
2022/05/06 05:28:17;;;;;;;29.73;21.10;;;;;;;;;;5113259;28;20047;-27
2022/05/06 05:30:44;;;;;;;35.22;21.50;;;;;;;;;;5113454;28;20039;-27
2022/05/06 05:33:10;;;;;;;34.33;20.85;;;;;;;;;;5113663;28;20045;-25
2022/05/06 05:35:38;;;;;;;34.88;23.10;;;;;;;;;;5112090;28;20051;-27
2022/05/06 05:38:04;;;;;;;40.40;25.00;;;;;;;;;;5113259;28;20082;-28
2022/05/06 05:40:31;;;;;;;37.15;23.73;;;;;;;;;;5111722;28;20051;-25
2022/05/06 05:42:57;;;;;;;37.13;22.65;;;;;;;;;;5112931;28;20039;-25
2022/05/06 05:48:20;;;;;;;42.38;26.02;;;;;;;;;;5108449;27;20118;-28
2022/05/06 05:50:47;;;;;;;46.95;28.20;;;;;;;;;;5100350;27;20051;-29
2022/05/06 05:53:13;;;;;;;47.33;29.50;;;;;;;;;;5103983;27;20472;-28
2022/05/06 05:55:41;;;;;;;46.45;27.77;;;;;;;;;;5102918;28;20036;-27
2022/05/06 05:58:09;;;;;;;52.33;31.48;;;;;;;;;;5105965;28;20043;-30
2022/05/06 06:00:37;;;;;;;49.30;29.17;;;;;;;;;;5075660;28;20047;-32
2022/05/06 06:03:03;;;;;;;51.75;30.70;;;;;;;;;;5100349;27;20127;-29
2022/05/06 06:05:30;;;;;;;62.25;33.92;;;;;;;;;;5116861;27;20092;-28
2022/05/06 06:07:56;;;;;;;51.67;30.98;;;;;;;;;;5131481;27;20039;-27
2022/05/06 06:10:22;;;;;;;55.63;33.00;;;;;;;;;;5104849;27;20031;-28
2022/05/06 06:12:49;;;;;;;51.67;31.95;;;;;;;;;;5111386;28;20036;-28
2022/05/06 06:15:16;;;;;;;50.92;31.20;;;;;;;;;;5105289;27;20573;-27
2022/05/06 06:17:42;;;;;;;56.33;32.22;;;;;;;;;;5113617;27;20588;-29
2022/05/06 06:20:08;;;;;;;54.42;33.20;;;;;;;;;;5132575;27;20080;-29
2022/05/06 06:22:34;;;;;;;57.40;34.50;;;;;;;;;;5104847;27;20056;-28
2022/05/06 06:25:00;;;;;;;63.53;36.50;;;;;;;;;;5094431;28;20032;-27
2022/05/06 06:27:28;;;;;;;52.70;33.95;;;;;;;;;;5111887;28;20040;-27
2022/05/06 06:29:54;;;;;;;53.38;32.40;;;;;;;;;;5109555;28;20040;-28
2022/05/06 06:32:21;;;;;;;53.00;30.73;;;;;;;;;;5111213;28;20481;-29
2022/05/06 06:34:49;;;;;;;47.25;30.67;;;;;;;;;;5110639;28;20071;-27
2022/05/06 06:37:15;;;;;;;42.72;27.45;;;;;;;;;;5101093;27;20028;-28
2022/05/06 06:39:42;;;;;;;35.60;23.92;;;;;;;;;;5097479;27;20050;-28
2022/05/06 06:42:09;;;;;;;35.75;22.40;;;;;;;;;;5097121;27;20031;-30
2022/05/06 06:44:35;;;;;;;33.00;22.17;;;;;;;;;;5109620;27;20054;-31
2022/05/06 06:47:01;;;;;;;33.03;21.75;;;;;;;;;;5105810;27;20071;-29
2022/05/06 06:49:27;;;;;;;28.00;18.80;;;;;;;;;;5106281;27;20401;-27
2022/05/06 06:51:53;;;;;;;33.55;20.35;;;;;;;;;;5100280;28;20082;-26
2022/05/06 06:54:19;;;;;;;31.48;21.20;;;;;;;;;;5105215;28;20067;-31
2022/05/06 06:56:45;;;;;;;27.55;19.95;;;;;;;;;;5098333;28;20040;-28
2022/05/06 06:59:11;;;;;;;27.08;19.50;;;;;;;;;;5111224;28;20122;-28
2022/05/06 07:01:37;;;;;;;29.17;20.35;;;;;;;;;;5099739;27;20048;-31
2022/05/06 07:04:03;;;;;;;28.27;19.42;;;;;;;;;;5106611;28;20036;-27
2022/05/06 07:11:59;;;;;;;23.55;17.88;;;;;;;;;;5100685;28;20445;-29
2022/05/06 07:14:26;;;;;;;23.38;17.08;;;;;;;;;;5101745;27;20455;-27
2022/05/06 07:16:53;;;;;;;24.95;17.15;;;;;;;;;;5106903;27;20519;-30
2022/05/06 07:19:20;;;;;;;23.90;17.63;;;;;;;;;;5115665;27;20062;-27
2022/05/06 07:21:46;;;;;;;27.80;17.30;;;;;;;;;;5133089;27;20076;-27
2022/05/06 07:24:12;;;;;;;28.70;18.08;;;;;;;;;;5118828;27;20046;-30
2022/05/06 07:26:38;;;;;;;29.08;18.30;;;;;;;;;;5093877;28;20066;-28
2022/05/06 07:29:05;;;;;;;27.13;17.92;;;;;;;;;;5093976;28;20048;-28
2022/05/06 07:31:31;;;;;;;30.42;19.45;;;;;;;;;;5094325;28;20032;-28
2022/05/06 07:33:57;;;;;;;30.48;18.42;;;;;;;;;;5094557;28;20079;-30
2022/05/06 07:36:23;;;;;;;31.45;20.45;;;;;;;;;;5094637;28;20062;-29
2022/05/06 07:38:50;;;;;;;28.48;19.17;;;;;;;;;;5094653;28;20477;-30
2022/05/06 07:41:16;;;;;;;28.55;20.13;;;;;;;;;;5112756;28;20097;-29
2022/05/06 07:43:42;;;;;;;30.42;21.75;;;;;;;;;;5076987;28;20044;-27
2022/05/06 07:46:11;;;;;;;29.13;20.95;;;;;;;;;;5092556;28;20044;-28
2022/05/06 07:48:38;;;;;;;32.60;21.95;;;;;;;;;;5093882;28;20493;-28
2022/05/06 07:51:05;;;;;;;31.23;21.45;;;;;;;;;;5095236;28;20322;-29
2022/05/06 07:53:31;;;;;;;33.13;22.48;;;;;;;;;;5108396;27;20062;-28
2022/05/06 07:55:57;;;;;;;29.30;20.73;;;;;;;;;;5109422;27;20604;-28
2022/05/06 07:58:23;;;;;;;29.65;21.63;;;;;;;;;;5111341;27;20035;-28
2022/05/06 08:00:52;;;;;;;26.17;19.63;;;;;;;;;;5114617;27;20051;-28
2022/05/06 08:06:04;;;;;;;26.27;19.55;;;;;;;;;;5113855;27;20047;-29
2022/05/06 08:08:31;;;;;;;27.55;20.65;;;;;;;;;;5118444;27;20119;-30
2022/05/06 08:10:57;;;;;;;27.08;20.85;;;;;;;;;;5117898;27;20081;-28
2022/05/06 08:13:23;;;;;;;29.70;20.98;;;;;;;;;;5106097;28;20835;-29
2022/05/06 08:15:51;;;;;;;28.40;21.85;;;;;;;;;;5111462;28;20032;-28
2022/05/06 08:18:17;;;;;;;29.10;21.40;;;;;;;;;;5094184;28;20089;-29
2022/05/06 08:20:43;;;;;;;25.95;20.27;;;;;;;;;;5093922;28;20040;-28
2022/05/06 08:23:09;;;;;;;26.38;20.27;;;;;;;;;;5107464;28;20477;-30
2022/05/06 08:25:35;;;;;;;27.02;20.92;;;;;;;;;;5104651;27;20040;-31
2022/05/06 08:28:01;;;;;;;25.70;19.20;;;;;;;;;;5106898;27;20075;-31
2022/05/06 08:30:27;;;;;;;27.92;19.17;;;;;;;;;;5108363;27;20042;-28
2022/05/06 08:32:53;;;;;;;27.50;19.42;;;;;;;;;;5117339;27;20124;-31
2022/05/06 08:35:20;;;;;;;29.10;20.58;;;;;;;;;;5128076;27;20038;-29
2022/05/06 08:37:47;;;;;;;28.65;20.92;;;;;;;;;;5113432;27;20035;-31
2022/05/06 08:40:17;;;;;;;24.70;19.30;;;;;;;;;;5105625;28;20035;-31
2022/05/06 08:42:44;;;;;;;25.33;19.45;;;;;;;;;;5108769;27;20039;-29
2022/05/06 08:50:53;;;;;;;22.65;16.58;;;;;;;;;;5091770;28;20052;-30
2022/05/06 08:53:20;;;;;;;21.23;16.27;;;;;;;;;;5093110;28;20036;-30
2022/05/06 08:55:47;;;;;;;24.60;17.15;;;;;;;;;;5109724;28;20114;-30
2022/05/06 08:58:13;;;;;;;21.48;14.95;;;;;;;;;;5098163;28;20542;-28
2022/05/06 09:00:39;;;;;;;21.27;14.85;;;;;;;;;;5094083;28;20350;-31
2022/05/06 09:03:05;;;;;;;19.98;15.20;;;;;;;;;;5102654;28;20168;-30
2022/05/06 09:05:31;;;;;;;17.88;13.93;;;;;;;;;;5113505;28;20047;-30
2022/05/06 09:08:02;;;;;;;20.90;14.90;;;;;;;;;;5104960;28;20040;-30
2022/05/06 09:10:29;;;;;;;20.10;15.45;;;;;;;;;;5092660;28;20093;-32
2022/05/06 09:12:56;;;;;;;18.42;14.23;;;;;;;;;;5100680;27;20036;-30
2022/05/06 09:18:08;;;;;;;18.15;13.70;;;;;;;;;;5098682;28;20122;-30
2022/05/06 09:20:34;;;;;;;14.27;11.70;;;;;;;;;;5101957;28;20035;-32
2022/05/06 09:23:18;;;;;;;16.65;12.30;;;;;;;;;;5101360;27;20106;-31
2022/05/06 09:25:53;;;;;;;16.85;12.50;;;;;;;;;;5105604;28;20085;-30
2022/05/06 09:28:27;;;;;;;16.10;12.07;;;;;;;;;;5104059;27;20485;-29
2022/05/06 09:31:04;;;;;;;15.15;11.82;;;;;;;;;;5104401;27;20086;-30
2022/05/06 09:33:31;;;;;;;17.85;12.48;;;;;;;;;;5101871;27;20031;-31
2022/05/06 09:35:58;;;;;;;18.92;12.23;;;;;;;;;;5104859;27;20060;-32
2022/05/06 09:38:25;;;;;;;13.80;11.68;;;;;;;;;;5103312;28;20477;-30
2022/05/06 09:40:52;;;;;;;17.83;12.95;;;;;;;;;;5106155;27;20073;-30
2022/05/06 09:43:20;;;;;;;13.90;11.52;;;;;;;;;;5105019;27;20118;-31
2022/05/06 09:45:46;;;;;;;14.30;12.00;;;;;;;;;;5083069;27;20127;-30
2022/05/06 09:48:13;;;;;;;14.90;12.10;;;;;;;;;;5107017;27;20039;-33
2022/05/06 09:50:39;;;;;;;17.08;12.57;;;;;;;;;;5102532;27;20551;-29
2022/05/06 09:53:07;;;;;;;15.93;12.30;;;;;;;;;;5085992;28;20095;-32
2022/05/06 09:55:35;;;;;;;15.90;12.40;;;;;;;;;;5107872;28;20158;-34
2022/05/06 09:58:01;;;;;;;15.20;11.20;;;;;;;;;;5098687;28;20048;-30
2022/05/06 10:00:28;;;;;;;14.20;10.13;;;;;;;;;;5111806;28;20114;-31
2022/05/06 10:02:55;;;;;;;9.40;8.00;;;;;;;;;;5111436;28;20047;-29
2022/05/06 10:05:21;;;;;;;11.80;9.85;;;;;;;;;;5092792;28;20128;-29
2022/05/06 10:07:47;;;;;;;8.57;7.45;;;;;;;;;;5097769;28;20031;-29
2022/05/06 10:10:19;;;;;;;9.07;7.22;;;;;;;;;;5112131;28;20040;-30
2022/05/06 10:12:53;;;;;;;7.70;6.60;;;;;;;;;;5113020;28;20044;-29
2022/05/06 10:15:24;;;;;;;7.28;6.57;;;;;;;;;;5112338;28;20084;-28
2022/05/06 10:17:56;;;;;;;7.40;6.00;;;;;;;;;;5112946;28;20032;-29
2022/05/06 10:20:45;;;;;;;6.95;6.07;;;;;;;;;;5113039;28;20118;-30
2022/05/06 10:23:11;;;;;;;6.57;5.95;;;;;;;;;;5105035;28;20071;-29
2022/05/06 10:25:41;;;;;;;7.35;6.65;;;;;;;;;;5113085;28;20048;-29
2022/05/06 10:34:07;;;;;;;5.97;5.38;;;;;;;;;;5113867;28;20420;-32
2022/05/06 10:36:47;;;;;;;5.22;4.82;;;;;;;;;;5107695;28;20044;-29
2022/05/06 10:39:20;;;;;;;4.78;4.38;;;;;;;;;;5093085;28;20039;-30
2022/05/06 10:42:01;;;;;;;5.20;4.70;;;;;;;;;;5100804;28;20043;-30
2022/05/06 10:44:34;;;;;;;4.55;4.15;;;;;;;;;;5112264;28;20047;-28
2022/05/06 10:47:01;;;;;;;4.32;4.00;;;;;;;;;;5111192;28;20047;-29
2022/05/06 10:49:39;;;;;;;4.82;4.18;;;;;;;;;;5110221;28;20516;-28
2022/05/06 10:52:20;;;;;;;4.15;3.75;;;;;;;;;;5112394;28;20075;-29
2022/05/06 10:54:53;;;;;;;4.60;4.30;;;;;;;;;;5111764;28;20048;-29
2022/05/06 10:57:20;;;;;;;4.75;4.35;;;;;;;;;;5111265;28;20438;-31
2022/05/06 10:59:52;;;;;;;4.70;4.32;;;;;;;;;;5110988;28;20114;-28
2022/05/06 11:02:18;;;;;;;6.45;4.00;;;;;;;;;;5111285;28;20040;-31
2022/05/06 11:04:51;;;;;;;4.57;4.10;;;;;;;;;;5126785;28;20074;-29
2022/05/06 11:07:17;;;;;;;4.10;3.80;;;;;;;;;;5130088;27;20043;-29
2022/05/06 11:09:44;;;;;;;4.30;3.90;;;;;;;;;;5130791;27;20043;-29
2022/05/06 11:12:10;;;;;;;4.75;4.30;;;;;;;;;;5112123;28;20435;-30
2022/05/06 11:14:36;;;;;;;5.10;4.60;;;;;;;;;;5106487;28;20497;-29
2022/05/06 11:17:15;;;;;;;4.40;4.00;;;;;;;;;;5091196;28;20036;-29
2022/05/06 11:19:41;;;;;;;4.40;3.75;;;;;;;;;;5091550;28;20067;-31
2022/05/06 11:22:08;;;;;;;10.80;4.10;;;;;;;;;;5104477;28;20385;-28
2022/05/06 11:24:34;;;;;;;4.95;3.72;;;;;;;;;;5112104;28;20043;-29
2022/05/06 11:27:12;;;;;;;3.85;3.42;;;;;;;;;;5111755;28;20112;-30
2022/05/06 11:29:49;;;;;;;3.47;3.17;;;;;;;;;;5111312;28;20043;-30
2022/05/06 11:32:15;;;;;;;4.55;3.70;;;;;;;;;;5110295;28;20112;-28
2022/05/06 11:35:04;;;;;;;3.63;3.35;;;;;;;;;;5111397;28;20061;-29
2022/05/06 11:37:34;;;;;;;3.78;3.47;;;;;;;;;;5111796;28;20061;-28
2022/05/06 11:40:18;;;;;;;3.75;3.45;;;;;;;;;;5111700;28;20088;-28
2022/05/06 11:42:45;;;;;;;3.38;2.70;;;;;;;;;;5111978;28;20436;-29
2022/05/06 11:48:09;;;;;;;3.65;3.30;;;;;;;;;;5092018;28;20074;-29
2022/05/06 11:50:36;;;;;;;3.83;3.53;;;;;;;;;;5091876;28;20036;-29
2022/05/06 11:53:08;;;;;;;4.40;4.10;;;;;;;;;;5091801;28;20079;-29
2022/05/06 11:55:36;;;;;;;3.85;3.55;;;;;;;;;;5091940;28;20040;-29
2022/05/06 11:58:02;;;;;;;4.85;4.32;;;;;;;;;;5092148;28;20371;-29
2022/05/06 12:00:29;;;;;;;4.95;4.60;;;;;;;;;;5091981;28;20044;-29
2022/05/06 12:02:56;;;;;;;5.25;4.68;;;;;;;;;;5095543;28;20496;-29
2022/05/06 12:05:22;;;;;;;5.00;4.57;;;;;;;;;;5095077;28;20036;-28
2022/05/06 12:07:49;;;;;;;3.78;3.50;;;;;;;;;;5093935;28;20440;-28
2022/05/06 12:10:25;;;;;;;3.85;3.30;;;;;;;;;;5087367;27;20110;-28
2022/05/06 12:12:52;;;;;;;3.53;3.22;;;;;;;;;;5131506;27;20046;-29
2022/05/06 12:15:18;;;;;;;4.50;4.20;;;;;;;;;;5133699;27;20507;-29
2022/05/06 12:17:44;;;;;;;4.10;3.80;;;;;;;;;;5127865;27;20035;-29
2022/05/06 12:20:29;;;;;;;3.65;3.35;;;;;;;;;;5112611;28;20095;-29
2022/05/06 12:22:58;;;;;;;2.90;2.45;;;;;;;;;;5110351;28;20116;-30
2022/05/06 12:25:24;;;;;;;3.70;3.40;;;;;;;;;;5110407;28;20124;-29
2022/05/06 12:28:03;;;;;;;2.72;2.53;;;;;;;;;;5110937;28;20130;-29
2022/05/06 12:30:30;;;;;;;2.38;2.17;;;;;;;;;;5109376;28;20051;-29
2022/05/06 12:33:17;;;;;;;6.15;3.22;;;;;;;;;;5111253;28;20413;-29
2022/05/06 12:36:15;;;;;;;2.20;2.00;;;;;;;;;;5101667;28;20120;-29
2022/05/06 12:38:41;;;;;;;4.15;2.30;;;;;;;;;;5071550;28;20093;-29
2022/05/06 12:41:24;;;;;;;2.15;2.05;;;;;;;;;;5094112;28;20040;-30
2022/05/06 12:43:51;;;;;;;1.83;1.73;;;;;;;;;;5094633;28;20039;-29
2022/05/06 12:46:36;;;;;;;2.20;2.00;;;;;;;;;;5094289;28;20094;-30
2022/05/06 12:51:47;;;;;;;2.17;1.52;;;;;;;;;;5093960;28;20137;-28
2022/05/06 12:54:14;;;;;;;2.28;1.52;;;;;;;;;;5094565;28;20440;-28
2022/05/06 12:56:41;;;;;;;1.83;1.70;;;;;;;;;;5093014;28;20469;-29
2022/05/06 12:59:07;;;;;;;2.95;2.75;;;;;;;;;;5094436;28;20036;-28
2022/05/06 13:01:34;;;;;;;2.90;2.40;;;;;;;;;;5092602;28;20055;-28
2022/05/06 13:04:01;;;;;;;4.18;2.25;;;;;;;;;;5097011;28;20044;-29
2022/05/06 13:06:27;;;;;;;2.15;1.92;;;;;;;;;;5113165;28;20542;-30
2022/05/06 13:08:53;;;;;;;3.10;2.35;;;;;;;;;;5114542;28;20047;-28
2022/05/06 13:11:19;;;;;;;2.92;1.63;;;;;;;;;;5114205;28;20054;-28
2022/05/06 13:13:45;;;;;;;3.13;2.10;;;;;;;;;;5113940;28;20370;-28
2022/05/06 13:16:12;;;;;;;3.85;3.47;;;;;;;;;;5114752;27;20089;-29
2022/05/06 13:18:39;;;;;;;2.83;2.42;;;;;;;;;;5114449;28;20047;-27
2022/05/06 13:21:05;;;;;;;4.75;2.50;;;;;;;;;;5114485;28;20082;-30
2022/05/06 13:23:31;;;;;;;3.75;2.03;;;;;;;;;;5114228;28;20500;-29
2022/05/06 13:25:58;;;;;;;2.38;1.65;;;;;;;;;;5112090;28;20477;-28
2022/05/06 13:28:24;;;;;;;3.35;2.60;;;;;;;;;;5111562;28;20405;-29
2022/05/06 13:30:50;;;;;;;3.10;2.05;;;;;;;;;;5112065;28;20044;-28
2022/05/06 13:33:16;;;;;;;3.20;2.70;;;;;;;;;;5111424;28;20039;-31
2022/05/06 13:35:45;;;;;;;3.55;3.05;;;;;;;;;;5111765;28;20035;-30
2022/05/06 13:38:11;;;;;;;3.63;3.30;;;;;;;;;;5111973;28;20058;-29
2022/05/06 13:40:37;;;;;;;3.75;3.00;;;;;;;;;;5108836;28;20040;-29
2022/05/06 13:43:03;;;;;;;2.65;2.45;;;;;;;;;;5107548;28;20028;-27
2022/05/06 13:45:30;;;;;;;5.95;4.28;;;;;;;;;;5107641;28;20118;-28
2022/05/06 13:47:56;;;;;;;4.80;4.30;;;;;;;;;;5108262;28;20503;-28
2022/05/06 13:50:22;;;;;;;6.38;4.70;;;;;;;;;;5108514;28;20438;-28
2022/05/06 13:52:49;;;;;;;6.45;4.30;;;;;;;;;;5108981;28;20485;-28
2022/05/06 13:55:16;;;;;;;3.97;3.58;;;;;;;;;;5098380;28;20032;-28
2022/05/06 14:00:27;;;;;;;3.88;3.50;;;;;;;;;;5112542;27;20288;-29
2022/05/06 14:02:53;;;;;;;4.28;3.55;;;;;;;;;;5109977;28;20073;-29
2022/05/06 14:05:19;;;;;;;3.30;3.00;;;;;;;;;;5112333;28;20046;-29
2022/05/06 14:07:45;;;;;;;4.75;3.42;;;;;;;;;;5094134;28;20093;-27
2022/05/06 14:10:11;;;;;;;6.43;3.47;;;;;;;;;;5112725;27;20036;-28
2022/05/06 14:12:38;;;;;;;4.00;3.40;;;;;;;;;;5111447;28;20043;-29
2022/05/06 14:15:05;;;;;;;5.25;4.38;;;;;;;;;;5112536;28;20071;-29
2022/05/06 14:17:31;;;;;;;3.05;2.83;;;;;;;;;;5123746;27;20035;-30
2022/05/06 14:19:57;;;;;;;4.10;3.28;;;;;;;;;;5112688;28;20080;-29
2022/05/06 14:22:23;;;;;;;6.00;4.70;;;;;;;;;;5113277;27;20043;-29
2022/05/06 14:24:50;;;;;;;4.97;4.40;;;;;;;;;;5112221;28;20048;-30
2022/05/06 14:27:17;;;;;;;5.95;5.13;;;;;;;;;;5112816;28;20039;-28
2022/05/06 14:29:46;;;;;;;5.10;4.05;;;;;;;;;;5112483;28;20508;-29
2022/05/06 14:32:12;;;;;;;5.82;5.22;;;;;;;;;;5111997;28;20039;-29
2022/05/06 14:34:38;;;;;;;6.93;5.85;;;;;;;;;;5112367;28;20032;-29
2022/05/06 14:37:06;;;;;;;5.30;4.80;;;;;;;;;;5110933;28;20075;-29
2022/05/06 14:39:32;;;;;;;5.25;4.85;;;;;;;;;;5112212;28;20043;-30
2022/05/06 14:41:58;;;;;;;5.70;4.65;;;;;;;;;;5106120;28;20088;-28
2022/05/06 14:44:24;;;;;;;6.40;4.85;;;;;;;;;;5112989;28;20040;-28
2022/05/06 14:46:50;;;;;;;5.95;5.15;;;;;;;;;;5112527;28;20415;-28
2022/05/06 14:49:17;;;;;;;8.48;5.00;;;;;;;;;;5112439;28;20485;-28
2022/05/06 14:51:43;;;;;;;5.43;4.75;;;;;;;;;;5112237;28;20032;-28
2022/05/06 14:54:09;;;;;;;6.43;4.63;;;;;;;;;;5112238;28;20396;-27
2022/05/06 14:56:36;;;;;;;5.35;4.53;;;;;;;;;;5111653;28;20032;-27
2022/05/06 14:59:02;;;;;;;5.15;4.28;;;;;;;;;;5112051;28;20481;-29
2022/05/06 15:01:28;;;;;;;8.60;4.03;;;;;;;;;;5111257;28;20389;-28
2022/05/06 15:03:54;;;;;;;5.72;4.57;;;;;;;;;;5110204;28;20043;-29
2022/05/06 15:06:21;;;;;;;7.88;4.47;;;;;;;;;;5111882;28;20040;-27
2022/05/06 15:08:47;;;;;;;6.45;4.68;;;;;;;;;;5106122;28;20044;-29
2022/05/06 15:11:14;;;;;;;5.97;4.40;;;;;;;;;;5100111;28;20485;-27
2022/05/06 15:13:40;;;;;;;4.93;3.80;;;;;;;;;;5111278;28;20039;-30
2022/05/06 15:16:07;;;;;;;5.90;3.92;;;;;;;;;;5096434;28;20042;-27